createdAt,value
2019-01-24T00:01:36.589Z,20.77
2019-01-24T00:04:25.949Z,24.18
2019-01-24T00:06:56.367Z,24.50
2019-01-24T00:09:45.488Z,25.57
2019-01-24T00:12:33.906Z,25.55
2019-01-24T00:15:04.849Z,25.25
2019-01-24T00:17:54.012Z,24.45
2019-01-24T00:20:24.237Z,25.90
2019-01-24T00:22:54.575Z,26.17
2019-01-24T00:25:43.714Z,26.57
2019-01-24T00:28:33.408Z,25.75
2019-01-24T00:31:04.350Z,25.15
2019-01-24T00:33:53.437Z,25.72
2019-01-24T00:36:24.007Z,25.50
2019-01-24T00:39:13.078Z,26.62
2019-01-24T00:42:02.475Z,26.40
2019-01-24T00:44:51.635Z,24.55
2019-01-24T00:47:41.284Z,26.25
2019-01-24T00:50:30.751Z,25.35
2019-01-24T00:53:20.248Z,25.08
2019-01-24T00:56:00.737Z,27.17
2019-01-24T00:58:42.038Z,27.30
2019-01-24T01:01:12.553Z,26.15
2019-01-24T01:03:43.444Z,26.05
2019-01-24T01:06:32.221Z,27.42
2019-01-24T01:09:21.299Z,26.93
2019-01-24T01:12:09.978Z,26.25
2019-01-24T01:14:58.429Z,25.50
2019-01-24T01:17:46.932Z,26.45
2019-01-24T01:20:35.676Z,26.97
2019-01-24T01:23:25.629Z,26.23
2019-01-24T01:25:57.230Z,27.40
2019-01-24T01:28:46.588Z,27.02
2019-01-24T01:31:35.673Z,27.13
2019-01-24T01:34:24.346Z,27.15
2019-01-24T01:37:13.372Z,27.98
2019-01-24T01:40:02.649Z,26.77
2019-01-24T01:42:51.911Z,25.25
2019-01-24T01:45:40.835Z,25.68
2019-01-24T01:48:30.048Z,28.90
2019-01-24T01:51:18.791Z,25.12
2019-01-24T01:54:08.011Z,27.73
2019-01-24T01:56:49.151Z,26.82
2019-01-24T01:59:30.658Z,26.07
2019-01-24T02:02:12.440Z,25.75
2019-01-24T02:04:53.692Z,26.12
2019-01-24T02:07:35.367Z,26.40
2019-01-24T02:10:16.712Z,25.50
2019-01-24T02:12:57.965Z,25.57
2019-01-24T02:15:38.424Z,24.47
2019-01-24T02:18:19.587Z,25.48
2019-01-24T02:21:00.718Z,26.12
2019-01-24T02:23:30.711Z,26.05
2019-01-24T02:26:19.832Z,25.75
2019-01-24T02:29:08.701Z,25.17
2019-01-24T02:31:58.043Z,24.52
2019-01-24T02:34:49.732Z,26.65
2019-01-24T02:37:36.231Z,24.60
2019-01-24T02:40:24.897Z,25.60
2019-01-24T02:42:55.183Z,25.12
2019-01-24T02:45:44.557Z,25.20
2019-01-24T02:48:33.541Z,26.82
2019-01-24T02:51:04.110Z,26.93
2019-01-24T02:53:53.207Z,25.92
2019-01-24T02:56:42.502Z,26.45
2019-01-24T02:59:31.536Z,26.35
2019-01-24T03:02:20.197Z,26.23
2019-01-24T03:05:09.582Z,24.63
2019-01-24T03:07:58.382Z,25.35
2019-01-24T03:10:46.824Z,27.00
2019-01-24T03:13:36.029Z,26.05
2019-01-24T03:16:24.909Z,27.80
2019-01-24T03:19:13.242Z,26.30
2019-01-24T03:22:02.456Z,24.32
2019-01-24T03:24:51.344Z,27.20
2019-01-24T03:27:40.274Z,27.00
2019-01-24T03:30:29.282Z,25.43
2019-01-24T03:33:18.204Z,26.68
2019-01-24T03:36:07.223Z,26.97
2019-01-24T03:38:56.254Z,27.32
2019-01-24T03:41:45.115Z,26.12
2019-01-24T03:44:34.358Z,26.30
2019-01-24T03:47:23.672Z,27.07
2019-01-24T03:50:14.134Z,26.70
2019-01-24T03:53:03.337Z,25.82
2019-01-24T03:55:44.913Z,26.15
2019-01-24T03:58:26.214Z,24.80
2019-01-24T04:01:07.601Z,27.22
2019-01-24T04:03:48.937Z,25.12
2019-01-24T04:06:30.644Z,27.05
2019-01-24T04:09:12.200Z,27.50
2019-01-24T04:11:53.169Z,27.32
2019-01-24T04:14:34.087Z,29.77
2019-01-24T04:17:16.008Z,25.40
2019-01-24T04:19:45.939Z,27.10
2019-01-24T04:22:35.119Z,27.32
2019-01-24T04:25:23.939Z,26.60
2019-01-24T04:28:13.154Z,27.42
2019-01-24T04:31:02.214Z,27.02
2019-01-24T04:33:51.128Z,28.67
2019-01-24T04:36:39.830Z,26.17
2019-01-24T04:39:28.463Z,25.27
2019-01-24T04:42:17.463Z,26.93
2019-01-24T04:45:06.457Z,27.70
2019-01-24T04:47:55.863Z,27.40
2019-01-24T04:50:44.699Z,27.82
2019-01-24T04:53:33.577Z,27.87
2019-01-24T04:56:15.173Z,25.80
2019-01-24T04:58:56.267Z,27.13
2019-01-24T05:01:37.912Z,26.95
2019-01-24T05:04:19.477Z,26.60
2019-01-24T05:07:01.018Z,26.15
2019-01-24T05:09:42.445Z,26.25
2019-01-24T05:12:23.684Z,27.67
2019-01-24T05:15:04.809Z,27.65
2019-01-24T05:17:46.384Z,27.40
2019-01-24T05:20:27.763Z,29.27
2019-01-24T05:23:09.397Z,25.40
2019-01-24T05:25:51.155Z,28.92
2019-01-24T05:31:31.982Z,27.00
2019-01-24T05:34:12.967Z,28.25
2019-01-24T05:36:53.909Z,26.12
2019-01-24T05:39:35.906Z,27.02
2019-01-24T05:42:17.431Z,27.90
2019-01-24T05:44:58.252Z,28.00
2019-01-24T05:47:39.769Z,28.57
2019-01-24T05:53:03.756Z,29.07
2019-01-24T05:55:44.929Z,27.02
2019-01-24T05:58:25.836Z,26.82
2019-01-24T06:01:08.820Z,28.32
2019-01-24T06:03:50.471Z,27.15
2019-01-24T06:06:32.087Z,27.37
2019-01-24T06:09:13.751Z,29.95
2019-01-24T06:11:55.196Z,28.95
2019-01-24T06:14:36.577Z,26.10
2019-01-24T06:17:18.012Z,47.90
2019-01-24T06:19:59.306Z,29.40
2019-01-24T06:22:40.481Z,36.20
2019-01-24T06:25:22.217Z,29.37
2019-01-24T06:28:03.135Z,27.25
2019-01-24T06:30:44.529Z,28.83
2019-01-24T06:33:26.081Z,27.50
2019-01-24T06:36:07.197Z,29.37
2019-01-24T06:38:47.952Z,30.02
2019-01-24T06:41:17.736Z,28.87
2019-01-24T06:44:06.571Z,30.68
2019-01-24T06:46:55.116Z,27.05
2019-01-24T06:49:44.625Z,27.67
2019-01-24T06:52:33.745Z,28.25
2019-01-24T06:55:23.761Z,26.97
2019-01-24T06:58:12.544Z,28.57
2019-01-24T07:01:01.670Z,28.45
2019-01-24T07:03:50.825Z,27.02
2019-01-24T07:06:40.116Z,27.95
2019-01-24T07:09:28.971Z,26.57
2019-01-24T07:12:17.816Z,26.02
2019-01-24T07:15:07.495Z,29.15
2019-01-24T07:17:56.383Z,27.90
2019-01-24T07:20:44.693Z,27.62
2019-01-24T07:23:33.491Z,28.00
2019-01-24T07:26:22.300Z,29.05
2019-01-24T07:29:11.072Z,30.15
2019-01-24T07:31:41.451Z,28.35
2019-01-24T07:34:30.222Z,27.73
2019-01-24T07:37:18.556Z,30.12
2019-01-24T07:40:07.939Z,30.10
2019-01-24T07:42:57.086Z,27.42
2019-01-24T07:45:45.902Z,28.35
2019-01-24T07:48:34.502Z,29.50
2019-01-24T07:51:23.039Z,28.95
2019-01-24T07:54:11.801Z,29.35
2019-01-24T07:56:52.781Z,29.98
2019-01-24T07:59:34.060Z,28.55
2019-01-24T08:02:15.378Z,28.35
2019-01-24T08:04:57.103Z,28.70
2019-01-24T08:10:12.074Z,28.52
2019-01-24T08:13:01.183Z,30.00
2019-01-24T08:15:50.011Z,31.00
2019-01-24T08:18:39.459Z,27.45
2019-01-24T08:21:28.514Z,27.50
2019-01-24T08:24:17.776Z,28.45
2019-01-24T08:27:06.315Z,28.90
2019-01-24T08:29:55.095Z,31.62
2019-01-24T08:32:43.760Z,29.00
2019-01-24T08:35:32.533Z,31.05
2019-01-24T08:38:21.590Z,29.00
2019-01-24T08:41:10.090Z,29.40
2019-01-24T08:43:59.550Z,31.45
2019-01-24T08:46:48.542Z,31.02
2019-01-24T08:49:37.935Z,30.15
2019-01-24T08:52:26.739Z,30.30
2019-01-24T08:55:17.603Z,30.72
2019-01-24T08:57:59.287Z,28.60
2019-01-24T09:00:40.521Z,29.75
2019-01-24T09:03:22.367Z,29.02
2019-01-24T09:06:03.903Z,28.62
2019-01-24T09:08:45.932Z,29.75
2019-01-24T09:11:27.163Z,30.60
2019-01-24T09:14:08.488Z,31.75
2019-01-24T09:16:50.178Z,30.65
2019-01-24T09:19:31.665Z,30.05
2019-01-24T09:22:12.402Z,31.77
2019-01-24T09:24:42.125Z,31.45
2019-01-24T09:27:30.947Z,32.75
2019-01-24T09:30:20.849Z,31.10
2019-01-24T09:32:51.022Z,30.55
2019-01-24T09:35:39.565Z,30.85
2019-01-24T09:38:28.163Z,29.00
2019-01-24T09:41:17.148Z,32.15
2019-01-24T09:44:06.420Z,32.58
2019-01-24T09:46:55.471Z,30.40
2019-01-24T09:49:44.367Z,30.65
2019-01-24T09:52:33.457Z,31.25
2019-01-24T09:55:22.267Z,30.95
2019-01-24T09:58:03.933Z,30.77
2019-01-24T10:00:45.374Z,31.75
2019-01-24T10:03:15.751Z,30.52
2019-01-24T10:06:04.923Z,29.12
2019-01-24T10:08:54.123Z,28.12
2019-01-24T10:11:43.201Z,29.25
2019-01-24T10:14:32.272Z,28.17
2019-01-24T10:17:21.391Z,29.45
2019-01-24T10:20:11.693Z,28.52
2019-01-24T10:23:00.536Z,30.20
2019-01-24T10:25:49.808Z,29.52
2019-01-24T10:28:38.657Z,29.85
2019-01-24T10:31:27.741Z,32.00
2019-01-24T10:34:17.031Z,30.88
2019-01-24T10:37:06.260Z,28.73
2019-01-24T10:39:36.810Z,28.98
2019-01-24T10:42:25.924Z,27.40
2019-01-24T10:45:35.418Z,27.73
2019-01-24T10:48:24.263Z,28.70
2019-01-24T10:51:13.055Z,28.45
2019-01-24T10:54:01.540Z,29.15
2019-01-24T10:56:50.333Z,29.35
2019-01-24T10:59:31.788Z,27.73
2019-01-24T11:02:13.019Z,29.80
2019-01-24T11:04:54.574Z,28.23
2019-01-24T11:07:36.455Z,30.75
2019-01-24T11:10:18.122Z,29.23
2019-01-24T11:13:00.087Z,27.90
2019-01-24T11:15:41.475Z,28.32
2019-01-24T11:24:25.599Z,27.07
2019-01-24T11:27:07.638Z,28.98
2019-01-24T11:29:49.114Z,28.90
2019-01-24T11:32:30.554Z,28.70
2019-01-24T11:35:12.703Z,28.73
2019-01-24T11:37:54.684Z,27.25
2019-01-24T11:40:36.088Z,27.90
2019-01-24T11:43:18.104Z,30.17
2019-01-24T11:45:59.496Z,27.22
2019-01-24T11:48:40.852Z,29.10
2019-01-24T11:51:22.667Z,29.18
2019-01-24T11:54:03.704Z,29.37
2019-01-24T11:56:44.921Z,28.70
2019-01-24T11:59:26.116Z,28.38
2019-01-24T12:02:07.331Z,29.30
2019-01-24T12:04:48.500Z,30.25
2019-01-24T12:07:29.656Z,30.05
2019-01-24T12:10:11.126Z,32.17
2019-01-24T12:12:52.213Z,31.25
2019-01-24T12:15:34.060Z,30.97
2019-01-24T12:18:14.901Z,30.17
2019-01-24T12:20:55.818Z,28.92
2019-01-24T12:23:37.124Z,29.92
2019-01-24T12:26:18.659Z,29.35
2019-01-24T12:29:00.417Z,30.68
2019-01-24T12:34:40.915Z,26.85
2019-01-24T12:37:21.646Z,28.50
2019-01-24T12:40:03.481Z,30.00
2019-01-24T12:42:44.832Z,30.70
2019-01-24T12:45:34.884Z,31.45
2019-01-24T12:48:23.983Z,28.87
2019-01-24T12:50:54.118Z,29.72
2019-01-24T12:53:42.399Z,29.77
2019-01-24T12:56:30.368Z,31.30
2019-01-24T12:59:18.870Z,31.25
2019-01-24T13:02:07.773Z,30.65
2019-01-24T13:04:56.953Z,31.50
2019-01-24T13:07:45.720Z,31.52
2019-01-24T13:10:17.962Z,29.95
2019-01-24T13:13:06.815Z,28.25
2019-01-24T13:15:55.877Z,27.55
2019-01-24T13:18:45.001Z,36.10
2019-01-24T13:21:34.348Z,30.82
2019-01-24T13:24:23.364Z,31.30
2019-01-24T13:27:12.019Z,28.90
2019-01-24T13:30:01.329Z,30.15
2019-01-24T13:32:50.178Z,30.27
2019-01-24T13:35:39.503Z,30.97
2019-01-24T13:38:09.730Z,29.50
2019-01-24T13:40:58.940Z,30.72
2019-01-24T13:43:47.576Z,31.25
2019-01-24T13:46:36.888Z,29.65
2019-01-24T13:49:25.816Z,28.98
2019-01-24T13:51:56.222Z,32.90
2019-01-24T13:54:44.857Z,30.70
2019-01-24T13:57:33.455Z,29.72
2019-01-24T14:00:41.116Z,29.02
2019-01-24T14:03:49.046Z,32.00
2019-01-24T14:06:20.161Z,28.23
2019-01-24T14:09:10.245Z,29.35
2019-01-24T14:11:59.469Z,30.10
2019-01-24T14:14:48.340Z,30.30
2019-01-24T14:17:29.675Z,29.55
2019-01-24T14:20:11.400Z,28.05
2019-01-24T14:22:52.515Z,29.67
2019-01-24T14:25:33.548Z,26.45
2019-01-24T14:28:15.000Z,28.77
2019-01-24T14:30:56.492Z,25.15
2019-01-24T14:33:37.820Z,26.37
2019-01-24T14:36:25.293Z,25.57
2019-01-24T14:38:51.831Z,24.67
2019-01-24T14:41:40.782Z,25.55
2019-01-24T14:44:29.682Z,24.63
2019-01-24T14:47:17.986Z,25.88
2019-01-24T14:50:08.618Z,24.37
2019-01-24T14:52:57.103Z,26.10
2019-01-24T14:55:45.986Z,30.48
2019-01-24T14:58:34.767Z,33.00
2019-01-24T15:01:16.850Z,33.95
2019-01-24T15:03:58.103Z,33.38
2019-01-24T15:06:39.181Z,34.58
2019-01-24T15:09:20.462Z,34.83
2019-01-24T15:12:01.494Z,35.28
2019-01-24T15:14:42.931Z,35.73
2019-01-24T15:17:24.512Z,36.40
2019-01-24T15:20:05.544Z,36.08
2019-01-24T15:22:46.461Z,36.55
2019-01-24T15:25:27.503Z,35.98
2019-01-24T15:28:08.895Z,34.67
2019-01-24T15:30:53.452Z,33.88
2019-01-24T15:33:35.439Z,37.20
2019-01-24T15:36:17.125Z,36.20
2019-01-24T15:38:58.623Z,33.67
2019-01-24T15:41:40.303Z,33.45
2019-01-24T15:44:21.643Z,33.85
2019-01-24T15:47:02.979Z,35.78
2019-01-24T15:49:44.598Z,35.90
2019-01-24T15:52:26.154Z,32.60
2019-01-24T15:55:08.105Z,35.08
2019-01-24T15:57:49.727Z,36.35
2019-01-24T16:00:31.457Z,36.65
2019-01-24T16:03:12.765Z,35.98
2019-01-24T16:05:54.742Z,35.15
2019-01-24T16:08:36.326Z,35.75
2019-01-24T16:11:17.711Z,34.48
2019-01-24T16:13:59.000Z,36.93
2019-01-24T16:16:40.044Z,35.75
2019-01-24T16:19:10.707Z,33.98
2019-01-24T16:21:40.883Z,35.43
2019-01-24T16:24:29.741Z,36.40
2019-01-24T16:27:18.707Z,34.20
2019-01-24T16:33:37.146Z,32.55
2019-01-24T16:36:26.314Z,36.10
2019-01-24T16:39:15.148Z,36.25
2019-01-24T16:42:04.460Z,35.15
2019-01-24T16:44:53.211Z,35.35
2019-01-24T16:47:42.088Z,34.50
2019-01-24T16:50:31.348Z,35.23
2019-01-24T16:53:20.365Z,37.63
2019-01-24T16:56:09.205Z,37.13
2019-01-24T16:58:58.478Z,36.70
2019-01-24T17:01:46.992Z,34.53
2019-01-24T17:04:35.795Z,35.38
2019-01-24T17:07:24.843Z,35.20
2019-01-24T17:10:14.964Z,34.15
2019-01-24T17:12:56.323Z,34.20
2019-01-24T17:15:37.144Z,33.30
2019-01-24T17:18:18.208Z,35.33
2019-01-24T17:20:58.840Z,34.33
2019-01-24T17:23:40.454Z,34.03
2019-01-24T17:26:22.146Z,35.52
2019-01-24T17:29:03.588Z,34.27
2019-01-24T17:31:44.974Z,33.88
2019-01-24T17:34:26.220Z,33.80
2019-01-24T17:37:07.578Z,35.08
2019-01-24T17:39:49.440Z,33.73
2019-01-24T17:42:31.084Z,34.23
2019-01-24T17:45:11.853Z,35.03
2019-01-24T17:47:53.984Z,31.65
2019-01-24T17:50:35.333Z,34.58
2019-01-24T17:53:18.599Z,32.75
2019-01-24T17:55:59.603Z,33.48
2019-01-24T18:01:40.744Z,36.40
2019-01-24T18:04:22.632Z,34.85
2019-01-24T18:07:04.793Z,37.13
2019-01-24T18:15:38.598Z,35.30
2019-01-24T18:18:28.547Z,34.27
2019-01-24T18:21:17.475Z,35.25
2019-01-24T18:24:06.126Z,32.48
2019-01-24T18:26:54.924Z,34.70
2019-01-24T18:29:43.956Z,33.20
2019-01-24T18:32:13.779Z,34.03
2019-01-24T18:35:02.888Z,34.98
2019-01-24T18:37:52.120Z,36.42
2019-01-24T18:40:41.410Z,35.17
2019-01-24T18:43:30.409Z,34.65
2019-01-24T18:46:19.196Z,34.50
2019-01-24T18:49:08.549Z,35.73
2019-01-24T18:51:57.677Z,34.25
2019-01-24T18:54:46.771Z,36.17
2019-01-24T18:57:35.699Z,38.05
2019-01-24T19:03:40.373Z,36.38
2019-01-24T19:06:12.058Z,35.63
2019-01-24T19:08:53.372Z,35.20
2019-01-24T19:14:06.859Z,34.70
2019-01-24T19:16:56.115Z,34.55
2019-01-24T19:19:27.728Z,34.88
2019-01-24T19:22:17.134Z,33.50
2019-01-24T19:25:07.209Z,35.45
2019-01-24T19:27:38.212Z,33.40
2019-01-24T19:30:27.974Z,35.60
2019-01-24T19:33:18.189Z,34.90
2019-01-24T19:36:07.880Z,33.33
2019-01-24T19:38:38.814Z,35.52
2019-01-24T19:41:28.264Z,35.20
2019-01-24T19:44:18.071Z,33.90
2019-01-24T19:47:09.084Z,36.80
2019-01-24T19:49:58.907Z,37.60
2019-01-24T19:52:49.535Z,35.00
2019-01-24T19:55:39.204Z,36.28
2019-01-24T19:58:29.266Z,35.88
2019-01-24T20:01:19.068Z,35.13
2019-01-24T20:04:01.316Z,38.10
2019-01-24T20:06:43.580Z,38.48
2019-01-24T20:09:15.437Z,36.15
2019-01-24T20:12:04.765Z,36.73
2019-01-24T20:14:54.561Z,36.85
2019-01-24T20:17:27.606Z,37.90
2019-01-24T20:20:16.724Z,37.30
2019-01-24T20:23:07.582Z,32.17
2019-01-24T20:25:38.590Z,32.50
2019-01-24T20:28:28.039Z,33.70
2019-01-24T20:31:19.000Z,29.45
2019-01-24T20:34:26.458Z,27.90
2019-01-24T20:37:15.653Z,27.10
2019-01-24T20:40:24.583Z,26.23
2019-01-24T20:43:14.058Z,20.95
2019-01-24T20:49:19.820Z,17.50
2019-01-24T20:52:08.820Z,16.97
2019-01-24T20:54:58.144Z,15.65
2019-01-24T20:57:47.619Z,14.47
2019-01-24T21:00:37.271Z,14.98
2019-01-24T21:03:26.784Z,14.78
2019-01-24T21:06:15.439Z,14.95
2019-01-24T21:09:25.572Z,15.20
2019-01-24T21:12:16.043Z,13.90
2019-01-24T21:18:20.488Z,18.65
2019-01-24T21:21:09.732Z,17.67
2019-01-24T21:23:58.434Z,14.65
2019-01-24T21:26:47.840Z,15.75
2019-01-24T21:29:18.357Z,15.65
2019-01-24T21:32:07.389Z,16.60
2019-01-24T21:34:56.510Z,15.63
2019-01-24T21:37:45.561Z,15.20
2019-01-24T21:40:34.672Z,17.62
2019-01-24T21:43:23.784Z,15.70
2019-01-24T21:46:12.604Z,16.27
2019-01-24T21:49:01.716Z,16.82
2019-01-24T21:51:51.385Z,18.30
2019-01-24T21:54:40.552Z,19.27
2019-01-24T21:57:29.477Z,18.92
2019-01-24T22:03:14.896Z,18.80
2019-01-24T22:05:55.806Z,19.37
2019-01-24T22:11:23.492Z,19.85
2019-01-24T22:14:05.594Z,21.60
2019-01-24T22:16:47.205Z,20.00
2019-01-24T22:19:28.535Z,19.55
2019-01-24T22:22:10.072Z,20.08
2019-01-24T22:24:50.730Z,20.27
2019-01-24T22:27:21.059Z,20.23
2019-01-24T22:29:51.152Z,22.22
2019-01-24T22:32:40.543Z,21.40
2019-01-24T22:35:29.784Z,20.32
2019-01-24T22:38:00.198Z,20.20
2019-01-24T22:40:50.851Z,20.12
2019-01-24T22:43:21.287Z,19.87
2019-01-24T22:46:10.081Z,19.57
2019-01-24T22:48:58.594Z,21.25
2019-01-24T22:51:47.714Z,20.05
2019-01-24T22:54:35.337Z,19.00
2019-01-24T22:57:05.407Z,19.48
2019-01-24T22:59:53.851Z,20.65
2019-01-24T23:02:35.212Z,19.95
2019-01-24T23:05:16.093Z,19.85
2019-01-24T23:07:57.123Z,20.85
2019-01-24T23:10:38.560Z,20.43
2019-01-24T23:13:20.342Z,21.62
2019-01-24T23:16:02.136Z,20.50
2019-01-24T23:18:43.136Z,22.10
2019-01-24T23:21:24.544Z,22.35
2019-01-24T23:24:06.518Z,23.52
2019-01-24T23:26:47.916Z,22.25
2019-01-24T23:29:29.156Z,21.75
2019-01-24T23:32:10.963Z,22.85
2019-01-24T23:34:52.911Z,22.87
2019-01-24T23:37:33.770Z,24.05
2019-01-24T23:40:15.124Z,22.40
2019-01-24T23:42:56.282Z,20.97
2019-01-24T23:45:37.315Z,22.10
2019-01-24T23:48:18.597Z,23.90
2019-01-24T23:51:00.126Z,21.95
2019-01-24T23:53:41.353Z,24.18
2019-01-24T23:56:12.123Z,22.17
2019-01-24T23:59:02.329Z,22.82
